sensor_id;sensor_type;location;lat;lon;timestamp;pressure;altitude;pressure_sealevel;temperature;humidity
55077;BME280;40971;44.702;11.030;2023-04-27T00:06:12;101415.75;;;9.45;74.08
55077;BME280;40971;44.702;11.030;2023-04-27T00:16:14;101408.97;;;9.42;75.29
55077;BME280;40971;44.702;11.030;2023-04-27T00:26:15;101390.47;;;9.34;75.60
55077;BME280;40971;44.702;11.030;2023-04-27T00:36:16;101397.81;;;9.21;75.46
55077;BME280;40971;44.702;11.030;2023-04-27T00:46:17;101394.59;;;8.89;78.55
55077;BME280;40971;44.702;11.030;2023-04-27T00:56:19;101410.31;;;8.79;78.93
55077;BME280;40971;44.702;11.030;2023-04-27T01:06:20;101424.66;;;8.85;78.72
55077;BME280;40971;44.702;11.030;2023-04-27T01:16:21;101421.28;;;8.54;80.06
55077;BME280;40971;44.702;11.030;2023-04-27T01:26:23;101424.63;;;8.35;79.84
55077;BME280;40971;44.702;11.030;2023-04-27T01:36:24;101427.31;;;8.54;80.22
55077;BME280;40971;44.702;11.030;2023-04-27T01:46:26;101436.00;;;8.45;80.26
55077;BME280;40971;44.702;11.030;2023-04-27T01:56:29;101443.88;;;8.04;80.16
55077;BME280;40971;44.702;11.030;2023-04-27T02:06:30;101450.25;;;7.70;81.67
55077;BME280;40971;44.702;11.030;2023-04-27T02:16:31;101448.06;;;7.54;82.36
55077;BME280;40971;44.702;11.030;2023-04-27T02:26:32;101457.66;;;7.33;84.10
55077;BME280;40971;44.702;11.030;2023-04-27T02:36:33;101458.09;;;7.17;86.08
55077;BME280;40971;44.702;11.030;2023-04-27T02:46:35;101484.28;;;7.38;86.60
55077;BME280;40971;44.702;11.030;2023-04-27T02:56:37;101482.03;;;7.33;87.90
55077;BME280;40971;44.702;11.030;2023-04-27T03:06:40;101496.44;;;7.59;88.06
55077;BME280;40971;44.702;11.030;2023-04-27T03:16:42;101494.88;;;7.36;86.97
55077;BME280;40971;44.702;11.030;2023-04-27T03:26:43;101515.59;;;7.60;86.94
55077;BME280;40971;44.702;11.030;2023-04-27T03:36:45;101519.91;;;7.82;86.88
55077;BME280;40971;44.702;11.030;2023-04-27T03:46:46;101527.41;;;7.43;84.74
55077;BME280;40971;44.702;11.030;2023-04-27T03:56:47;101533.13;;;7.37;83.71
55077;BME280;40971;44.702;11.030;2023-04-27T04:06:50;101547.69;;;7.19;83.37
55077;BME280;40971;44.702;11.030;2023-04-27T04:16:53;101533.66;;;6.98;81.92
55077;BME280;40971;44.702;11.030;2023-04-27T04:26:54;101542.84;;;6.13;84.65
55077;BME280;40971;44.702;11.030;2023-04-27T04:36:58;101557.72;;;6.35;85.77
55077;BME280;40971;44.702;11.030;2023-04-27T04:47:00;101551.50;;;6.71;85.14
55077;BME280;40971;44.702;11.030;2023-04-27T04:57:01;101587.25;;;7.15;84.21
55077;BME280;40971;44.702;11.030;2023-04-27T05:07:04;101596.41;;;7.31;84.94
55077;BME280;40971;44.702;11.030;2023-04-27T05:17:07;101604.22;;;7.53;85.54
55077;BME280;40971;44.702;11.030;2023-04-27T05:27:08;101610.91;;;8.21;85.88
55077;BME280;40971;44.702;11.030;2023-04-27T05:37:09;101612.94;;;8.70;85.17
55077;BME280;40971;44.702;11.030;2023-04-27T05:47:11;101629.88;;;9.17;84.38
55077;BME280;40971;44.702;11.030;2023-04-27T05:57:12;101640.50;;;9.55;83.34
55077;BME280;40971;44.702;11.030;2023-04-27T06:07:14;101649.16;;;9.86;82.86
55077;BME280;40971;44.702;11.030;2023-04-27T06:17:20;101656.97;;;10.26;82.39
55077;BME280;40971;44.702;11.030;2023-04-27T06:27:22;101640.31;;;10.64;81.56
55077;BME280;40971;44.702;11.030;2023-04-27T06:37:23;101652.97;;;11.06;80.07
55077;BME280;40971;44.702;11.030;2023-04-27T06:47:25;101649.03;;;11.57;79.64
55077;BME280;40971;44.702;11.030;2023-04-27T06:57:29;101647.28;;;12.81;76.03
55077;BME280;40971;44.702;11.030;2023-04-27T07:07:30;101641.41;;;13.63;72.54
55077;BME280;40971;44.702;11.030;2023-04-27T07:17:32;101655.16;;;14.56;69.12
55077;BME280;40971;44.702;11.030;2023-04-27T07:27:34;101660.81;;;15.33;65.96
55077;BME280;40971;44.702;11.030;2023-04-27T07:37:38;101653.06;;;16.01;64.25
55077;BME280;40971;44.702;11.030;2023-04-27T07:47:41;101642.75;;;16.06;63.95
55077;BME280;40971;44.702;11.030;2023-04-27T07:57:42;101659.00;;;16.25;63.62
55077;BME280;40971;44.702;11.030;2023-04-27T08:07:43;101668.16;;;16.68;62.26
55077;BME280;40971;44.702;11.030;2023-04-27T08:17:46;101667.94;;;16.93;60.92
55077;BME280;40971;44.702;11.030;2023-04-27T08:27:47;101659.09;;;17.59;58.09
55077;BME280;40971;44.702;11.030;2023-04-27T08:37:49;101661.97;;;18.35;53.86
55077;BME280;40971;44.702;11.030;2023-04-27T08:47:51;101669.16;;;19.18;53.14
55077;BME280;40971;44.702;11.030;2023-04-27T08:57:55;101673.78;;;19.31;52.37
55077;BME280;40971;44.702;11.030;2023-04-27T09:18:00;101663.81;;;19.93;48.87
55077;BME280;40971;44.702;11.030;2023-04-27T09:28:01;101667.47;;;19.79;47.90
55077;BME280;40971;44.702;11.030;2023-04-27T09:38:03;101660.66;;;19.76;48.93
55077;BME280;40971;44.702;11.030;2023-04-27T09:48:05;101654.50;;;20.63;48.30
55077;BME280;40971;44.702;11.030;2023-04-27T10:08:15;101636.38;;;20.78;43.57
55077;BME280;40971;44.702;11.030;2023-04-27T10:18:28;101641.31;;;21.07;42.71
55077;BME280;40971;44.702;11.030;2023-04-27T10:28:37;101623.97;;;21.23;44.18
55077;BME280;40971;44.702;11.030;2023-04-27T10:38:40;101613.28;;;21.03;43.53
55077;BME280;40971;44.702;11.030;2023-04-27T10:48:44;101609.28;;;21.38;42.65
55077;BME280;40971;44.702;11.030;2023-04-27T10:58:45;101613.63;;;21.39;40.04
55077;BME280;40971;44.702;11.030;2023-04-27T11:08:46;101610.84;;;21.59;39.91
55077;BME280;40971;44.702;11.030;2023-04-27T11:18:49;101597.72;;;21.89;38.57
55077;BME280;40971;44.702;11.030;2023-04-27T11:29:09;101599.72;;;21.18;38.64
55077;BME280;40971;44.702;11.030;2023-04-27T11:39:18;101601.72;;;21.29;38.60
55077;BME280;40971;44.702;11.030;2023-04-27T11:49:19;101599.34;;;21.96;36.45
55077;BME280;40971;44.702;11.030;2023-04-27T11:59:21;101604.72;;;21.96;36.40
55077;BME280;40971;44.702;11.030;2023-04-27T12:09:29;101597.50;;;21.97;33.90
55077;BME280;40971;44.702;11.030;2023-04-27T12:19:31;101594.59;;;21.61;35.80
55077;BME280;40971;44.702;11.030;2023-04-27T12:29:32;101576.13;;;21.90;35.73
55077;BME280;40971;44.702;11.030;2023-04-27T12:39:34;101586.78;;;21.53;36.50
55077;BME280;40971;44.702;11.030;2023-04-27T12:49:38;101595.50;;;22.67;35.93
55077;BME280;40971;44.702;11.030;2023-04-27T12:59:39;101591.81;;;23.04;35.16
55077;BME280;40971;44.702;11.030;2023-04-27T13:09:43;101599.91;;;23.15;34.84
55077;BME280;40971;44.702;11.030;2023-04-27T13:19:45;101590.06;;;22.73;33.06
55077;BME280;40971;44.702;11.030;2023-04-27T13:29:47;101593.94;;;23.32;33.12
55077;BME280;40971;44.702;11.030;2023-04-27T13:39:52;101588.16;;;22.06;35.20
55077;BME280;40971;44.702;11.030;2023-04-27T13:49:53;101578.91;;;22.51;32.89
55077;BME280;40971;44.702;11.030;2023-04-27T13:59:54;101584.44;;;21.31;33.90
55077;BME280;40971;44.702;11.030;2023-04-27T14:09:55;101580.44;;;20.83;35.54
55077;BME280;40971;44.702;11.030;2023-04-27T14:19:56;101573.00;;;21.93;32.98
55077;BME280;40971;44.702;11.030;2023-04-27T14:29:57;101569.34;;;21.88;32.32
55077;BME280;40971;44.702;11.030;2023-04-27T14:39:59;101568.69;;;21.55;32.49
55077;BME280;40971;44.702;11.030;2023-04-27T14:50:00;101562.41;;;21.74;33.23
55077;BME280;40971;44.702;11.030;2023-04-27T15:00:01;101561.16;;;21.70;34.47
55077;BME280;40971;44.702;11.030;2023-04-27T15:10:08;101554.25;;;21.18;36.64
55077;BME280;40971;44.702;11.030;2023-04-27T15:20:09;101553.66;;;21.16;37.05
55077;BME280;40971;44.702;11.030;2023-04-27T15:30:11;101547.66;;;21.14;35.81
55077;BME280;40971;44.702;11.030;2023-04-27T15:40:13;101550.09;;;20.51;38.34
55077;BME280;40971;44.702;11.030;2023-04-27T15:50:14;101552.13;;;20.03;37.92
55077;BME280;40971;44.702;11.030;2023-04-27T16:00:15;101538.38;;;20.39;38.21
55077;BME280;40971;44.702;11.030;2023-04-27T16:10:17;101536.91;;;20.56;37.21
55077;BME280;40971;44.702;11.030;2023-04-27T16:20:18;101527.69;;;20.13;35.95
55077;BME280;40971;44.702;11.030;2023-04-27T16:30:19;101543.50;;;19.95;35.37
55077;BME280;40971;44.702;11.030;2023-04-27T16:40:20;101542.06;;;19.79;34.25
55077;BME280;40971;44.702;11.030;2023-04-27T16:50:22;101543.06;;;19.78;34.36
55077;BME280;40971;44.702;11.030;2023-04-27T17:00:22;101550.00;;;19.59;35.21
55077;BME280;40971;44.702;11.030;2023-04-27T17:10:24;101564.63;;;19.23;37.18
55077;BME280;40971;44.702;11.030;2023-04-27T17:20:25;101581.84;;;19.20;38.77
55077;BME280;40971;44.702;11.030;2023-04-27T17:30:26;101600.38;;;18.66;40.74
55077;BME280;40971;44.702;11.030;2023-04-27T17:40:27;101600.19;;;18.46;42.65
55077;BME280;40971;44.702;11.030;2023-04-27T17:50:28;101589.91;;;17.94;43.44
55077;BME280;40971;44.702;11.030;2023-04-27T18:00:30;101602.03;;;17.46;45.37
55077;BME280;40971;44.702;11.030;2023-04-27T18:10:31;101589.28;;;16.92;47.59
55077;BME280;40971;44.702;11.030;2023-04-27T18:20:33;101600.25;;;16.51;49.16
55077;BME280;40971;44.702;11.030;2023-04-27T18:30:33;101604.19;;;16.18;48.35
55077;BME280;40971;44.702;11.030;2023-04-27T18:40:35;101605.44;;;15.85;49.35
55077;BME280;40971;44.702;11.030;2023-04-27T18:50:36;101613.94;;;15.49;50.88
55077;BME280;40971;44.702;11.030;2023-04-27T19:00:37;101631.91;;;15.15;51.97
55077;BME280;40971;44.702;11.030;2023-04-27T19:10:39;101643.56;;;14.90;51.97
55077;BME280;40971;44.702;11.030;2023-04-27T19:20:41;101644.91;;;14.62;52.75
55077;BME280;40971;44.702;11.030;2023-04-27T19:30:42;101664.59;;;14.43;52.97
55077;BME280;40971;44.702;11.030;2023-04-27T19:40:46;101667.84;;;14.21;54.13
55077;BME280;40971;44.702;11.030;2023-04-27T19:50:48;101695.84;;;13.81;56.02
55077;BME280;40971;44.702;11.030;2023-04-27T20:00:49;101694.94;;;13.57;56.20
55077;BME280;40971;44.702;11.030;2023-04-27T20:10:51;101693.38;;;13.88;54.25
55077;BME280;40971;44.702;11.030;2023-04-27T20:20:52;101697.47;;;13.74;55.43
55077;BME280;40971;44.702;11.030;2023-04-27T20:30:53;101709.56;;;13.17;56.69
55077;BME280;40971;44.702;11.030;2023-04-27T20:40:54;101712.00;;;12.93;58.08
55077;BME280;40971;44.702;11.030;2023-04-27T20:50:58;101708.88;;;12.72;60.62
55077;BME280;40971;44.702;11.030;2023-04-27T21:00:59;101720.03;;;12.48;63.37
55077;BME280;40971;44.702;11.030;2023-04-27T21:11:00;101721.75;;;12.75;63.71
55077;BME280;40971;44.702;11.030;2023-04-27T21:21:03;101735.03;;;12.83;63.64
55077;BME280;40971;44.702;11.030;2023-04-27T21:31:04;101725.16;;;12.50;64.49
55077;BME280;40971;44.702;11.030;2023-04-27T21:41:06;101733.19;;;12.13;65.49
55077;BME280;40971;44.702;11.030;2023-04-27T21:51:07;101748.97;;;11.58;66.34
55077;BME280;40971;44.702;11.030;2023-04-27T22:01:08;101744.97;;;11.45;69.14
55077;BME280;40971;44.702;11.030;2023-04-27T22:11:10;101758.06;;;11.18;70.21
55077;BME280;40971;44.702;11.030;2023-04-27T22:21:12;101760.19;;;11.04;71.00
55077;BME280;40971;44.702;11.030;2023-04-27T22:31:13;101760.75;;;10.98;71.06
55077;BME280;40971;44.702;11.030;2023-04-27T22:41:16;101770.59;;;10.96;72.28
55077;BME280;40971;44.702;11.030;2023-04-27T22:51:19;101766.44;;;10.65;73.03
55077;BME280;40971;44.702;11.030;2023-04-27T23:01:21;101782.34;;;10.73;74.78
55077;BME280;40971;44.702;11.030;2023-04-27T23:11:22;101779.56;;;10.46;72.10
55077;BME280;40971;44.702;11.030;2023-04-27T23:21:25;101781.63;;;10.42;73.40
55077;BME280;40971;44.702;11.030;2023-04-27T23:31:29;101788.28;;;10.07;74.69
55077;BME280;40971;44.702;11.030;2023-04-27T23:41:30;101786.59;;;10.06;75.40
55077;BME280;40971;44.702;11.030;2023-04-27T23:51:34;101787.06;;;9.80;74.90
